sensor_id;sensor_type;location;lat;lon;timestamp;temperature;humidity
7970;DHT22;4030;52.362;9.206;2023-06-14T00:01:36;22.50;40.00
7970;DHT22;4030;52.362;9.206;2023-06-14T00:04:03;22.40;40.00
7970;DHT22;4030;52.362;9.206;2023-06-14T00:06:30;22.40;40.10
7970;DHT22;4030;52.362;9.206;2023-06-14T00:08:56;22.40;40.20
7970;DHT22;4030;52.362;9.206;2023-06-14T00:11:21;22.40;40.40
7970;DHT22;4030;52.362;9.206;2023-06-14T00:13:47;22.30;40.30
7970;DHT22;4030;52.362;9.206;2023-06-14T00:16:12;22.30;40.40
7970;DHT22;4030;52.362;9.206;2023-06-14T00:18:38;22.30;40.50
7970;DHT22;4030;52.362;9.206;2023-06-14T00:21:05;22.20;40.60
7970;DHT22;4030;52.362;9.206;2023-06-14T00:23:30;22.20;40.60
7970;DHT22;4030;52.362;9.206;2023-06-14T00:25:56;22.20;40.70
7970;DHT22;4030;52.362;9.206;2023-06-14T00:28:22;22.10;40.70
7970;DHT22;4030;52.362;9.206;2023-06-14T00:30:47;22.10;40.80
7970;DHT22;4030;52.362;9.206;2023-06-14T00:33:14;22.10;40.90
7970;DHT22;4030;52.362;9.206;2023-06-14T00:35:39;22.10;41.00
7970;DHT22;4030;52.362;9.206;2023-06-14T00:38:05;22.00;40.90
7970;DHT22;4030;52.362;9.206;2023-06-14T00:40:31;22.00;41.00
7970;DHT22;4030;52.362;9.206;2023-06-14T00:42:56;21.90;41.10
7970;DHT22;4030;52.362;9.206;2023-06-14T00:45:22;21.90;41.20
7970;DHT22;4030;52.362;9.206;2023-06-14T00:47:50;21.90;41.30
7970;DHT22;4030;52.362;9.206;2023-06-14T00:50:18;21.80;41.40
7970;DHT22;4030;52.362;9.206;2023-06-14T00:52:44;21.80;41.40
7970;DHT22;4030;52.362;9.206;2023-06-14T00:55:10;21.70;41.40
7970;DHT22;4030;52.362;9.206;2023-06-14T00:57:35;21.70;41.60
7970;DHT22;4030;52.362;9.206;2023-06-14T01:00:03;21.70;41.60
7970;DHT22;4030;52.362;9.206;2023-06-14T01:02:35;21.60;41.60
7970;DHT22;4030;52.362;9.206;2023-06-14T01:05:02;21.60;41.70
7970;DHT22;4030;52.362;9.206;2023-06-14T01:10:23;21.50;41.80
7970;DHT22;4030;52.362;9.206;2023-06-14T01:15:57;21.50;42.00
7970;DHT22;4030;52.362;9.206;2023-06-14T01:18:23;21.40;42.00
7970;DHT22;4030;52.362;9.206;2023-06-14T01:20:49;21.40;42.20
7970;DHT22;4030;52.362;9.206;2023-06-14T01:23:19;21.40;42.20
7970;DHT22;4030;52.362;9.206;2023-06-14T01:25:47;21.40;42.40
7970;DHT22;4030;52.362;9.206;2023-06-14T01:28:16;21.30;42.30
7970;DHT22;4030;52.362;9.206;2023-06-14T01:30:44;21.30;42.40
7970;DHT22;4030;52.362;9.206;2023-06-14T01:33:17;21.20;42.50
7970;DHT22;4030;52.362;9.206;2023-06-14T01:35:50;21.20;42.50
7970;DHT22;4030;52.362;9.206;2023-06-14T01:38:23;21.20;42.60
7970;DHT22;4030;52.362;9.206;2023-06-14T01:40:52;21.10;42.60
7970;DHT22;4030;52.362;9.206;2023-06-14T01:43:20;21.10;42.70
7970;DHT22;4030;52.362;9.206;2023-06-14T01:45:47;21.10;42.80
7970;DHT22;4030;52.362;9.206;2023-06-14T01:48:16;21.00;42.80
7970;DHT22;4030;52.362;9.206;2023-06-14T01:50:42;21.00;42.90
7970;DHT22;4030;52.362;9.206;2023-06-14T01:53:09;21.00;43.00
7970;DHT22;4030;52.362;9.206;2023-06-14T01:55:36;20.90;43.00
7970;DHT22;4030;52.362;9.206;2023-06-14T01:58:08;20.90;43.10
7970;DHT22;4030;52.362;9.206;2023-06-14T02:00:37;20.80;43.20
7970;DHT22;4030;52.362;9.206;2023-06-14T02:03:02;20.80;43.30
7970;DHT22;4030;52.362;9.206;2023-06-14T02:05:31;20.80;43.40
7970;DHT22;4030;52.362;9.206;2023-06-14T02:07:57;20.70;43.40
7970;DHT22;4030;52.362;9.206;2023-06-14T02:10:22;20.70;43.50
7970;DHT22;4030;52.362;9.206;2023-06-14T02:12:48;20.70;43.60
7970;DHT22;4030;52.362;9.206;2023-06-14T02:15:14;20.60;43.60
7970;DHT22;4030;52.362;9.206;2023-06-14T02:17:45;20.60;43.70
7970;DHT22;4030;52.362;9.206;2023-06-14T02:20:12;20.60;43.80
7970;DHT22;4030;52.362;9.206;2023-06-14T02:22:38;20.60;43.90
7970;DHT22;4030;52.362;9.206;2023-06-14T02:25:04;20.50;43.90
7970;DHT22;4030;52.362;9.206;2023-06-14T02:27:31;20.50;44.00
7970;DHT22;4030;52.362;9.206;2023-06-14T02:29:57;20.50;44.10
7970;DHT22;4030;52.362;9.206;2023-06-14T02:32:23;20.40;44.20
7970;DHT22;4030;52.362;9.206;2023-06-14T02:34:48;20.40;44.20
7970;DHT22;4030;52.362;9.206;2023-06-14T02:37:15;20.40;44.20
7970;DHT22;4030;52.362;9.206;2023-06-14T02:39:42;20.30;44.20
7970;DHT22;4030;52.362;9.206;2023-06-14T02:42:07;20.30;44.40
7970;DHT22;4030;52.362;9.206;2023-06-14T02:44:33;20.30;44.40
7970;DHT22;4030;52.362;9.206;2023-06-14T02:46:58;20.20;44.50
7970;DHT22;4030;52.362;9.206;2023-06-14T02:49:26;20.20;44.50
7970;DHT22;4030;52.362;9.206;2023-06-14T02:51:51;20.20;44.60
7970;DHT22;4030;52.362;9.206;2023-06-14T02:54:17;20.20;44.70
7970;DHT22;4030;52.362;9.206;2023-06-14T02:56:43;20.20;44.70
7970;DHT22;4030;52.362;9.206;2023-06-14T02:59:09;20.10;44.70
7970;DHT22;4030;52.362;9.206;2023-06-14T03:01:35;20.10;44.80
7970;DHT22;4030;52.362;9.206;2023-06-14T03:04:01;20.10;44.90
7970;DHT22;4030;52.362;9.206;2023-06-14T03:06:29;20.00;44.80
7970;DHT22;4030;52.362;9.206;2023-06-14T03:08:56;20.00;44.90
7970;DHT22;4030;52.362;9.206;2023-06-14T03:11:25;20.00;44.90
7970;DHT22;4030;52.362;9.206;2023-06-14T03:13:54;19.90;44.90
7970;DHT22;4030;52.362;9.206;2023-06-14T03:16:21;19.90;45.70
7970;DHT22;4030;52.362;9.206;2023-06-14T03:18:51;19.90;45.00
7970;DHT22;4030;52.362;9.206;2023-06-14T03:21:18;19.90;45.10
7970;DHT22;4030;52.362;9.206;2023-06-14T03:23:46;19.80;45.20
7970;DHT22;4030;52.362;9.206;2023-06-14T03:26:12;19.80;45.20
7970;DHT22;4030;52.362;9.206;2023-06-14T03:28:46;19.80;45.30
7970;DHT22;4030;52.362;9.206;2023-06-14T03:31:13;19.80;45.30
7970;DHT22;4030;52.362;9.206;2023-06-14T03:33:39;19.80;45.40
7970;DHT22;4030;52.362;9.206;2023-06-14T03:36:05;19.80;45.50
7970;DHT22;4030;52.362;9.206;2023-06-14T03:38:32;19.80;46.30
7970;DHT22;4030;52.362;9.206;2023-06-14T03:40:58;19.80;47.20
7970;DHT22;4030;52.362;9.206;2023-06-14T03:43:23;19.80;47.80
7970;DHT22;4030;52.362;9.206;2023-06-14T03:45:49;19.80;48.10
7970;DHT22;4030;52.362;9.206;2023-06-14T03:48:15;19.80;48.40
7970;DHT22;4030;52.362;9.206;2023-06-14T03:50:40;19.80;48.60
7970;DHT22;4030;52.362;9.206;2023-06-14T03:53:08;19.80;48.70
7970;DHT22;4030;52.362;9.206;2023-06-14T03:55:34;19.90;48.80
7970;DHT22;4030;52.362;9.206;2023-06-14T03:58:00;19.90;48.90
7970;DHT22;4030;52.362;9.206;2023-06-14T04:00:26;19.90;48.90
7970;DHT22;4030;52.362;9.206;2023-06-14T04:02:52;20.00;49.00
7970;DHT22;4030;52.362;9.206;2023-06-14T04:05:19;20.00;49.00
7970;DHT22;4030;52.362;9.206;2023-06-14T04:07:46;20.00;49.00
7970;DHT22;4030;52.362;9.206;2023-06-14T04:10:15;20.00;48.90
7970;DHT22;4030;52.362;9.206;2023-06-14T04:12:41;20.00;48.90
7970;DHT22;4030;52.362;9.206;2023-06-14T04:15:08;20.00;49.50
7970;DHT22;4030;52.362;9.206;2023-06-14T04:17:34;20.10;48.90
7970;DHT22;4030;52.362;9.206;2023-06-14T04:20:01;20.10;48.90
7970;DHT22;4030;52.362;9.206;2023-06-14T04:22:29;20.10;48.90
7970;DHT22;4030;52.362;9.206;2023-06-14T04:24:55;20.10;48.90
7970;DHT22;4030;52.362;9.206;2023-06-14T04:27:22;20.10;48.90
7970;DHT22;4030;52.362;9.206;2023-06-14T04:29:51;20.20;49.00
7970;DHT22;4030;52.362;9.206;2023-06-14T04:32:23;20.20;49.00
7970;DHT22;4030;52.362;9.206;2023-06-14T04:34:57;20.10;48.90
7970;DHT22;4030;52.362;9.206;2023-06-14T04:37:24;20.20;49.00
7970;DHT22;4030;52.362;9.206;2023-06-14T04:39:54;20.20;48.90
7970;DHT22;4030;52.362;9.206;2023-06-14T04:42:21;20.20;48.90
7970;DHT22;4030;52.362;9.206;2023-06-14T04:44:50;20.20;49.00
7970;DHT22;4030;52.362;9.206;2023-06-14T04:47:16;20.20;49.00
7970;DHT22;4030;52.362;9.206;2023-06-14T04:49:42;20.30;49.00
7970;DHT22;4030;52.362;9.206;2023-06-14T04:52:08;20.30;49.00
7970;DHT22;4030;52.362;9.206;2023-06-14T04:54:36;20.30;49.10
7970;DHT22;4030;52.362;9.206;2023-06-14T04:57:08;20.40;49.10
7970;DHT22;4030;52.362;9.206;2023-06-14T04:59:40;20.40;49.20
7970;DHT22;4030;52.362;9.206;2023-06-14T05:02:06;20.40;49.20
7970;DHT22;4030;52.362;9.206;2023-06-14T05:04:32;20.40;49.20
7970;DHT22;4030;52.362;9.206;2023-06-14T05:06:58;20.40;49.20
7970;DHT22;4030;52.362;9.206;2023-06-14T05:09:24;20.40;49.20
7970;DHT22;4030;52.362;9.206;2023-06-14T05:11:50;20.40;49.20
7970;DHT22;4030;52.362;9.206;2023-06-14T05:14:16;20.50;49.30
7970;DHT22;4030;52.362;9.206;2023-06-14T05:16:43;20.50;49.20
7970;DHT22;4030;52.362;9.206;2023-06-14T05:19:09;20.50;49.20
7970;DHT22;4030;52.362;9.206;2023-06-14T05:21:36;20.50;49.20
7970;DHT22;4030;52.362;9.206;2023-06-14T05:24:03;20.60;49.20
7970;DHT22;4030;52.362;9.206;2023-06-14T05:26:28;20.60;49.20
7970;DHT22;4030;52.362;9.206;2023-06-14T05:28:55;20.60;49.30
7970;DHT22;4030;52.362;9.206;2023-06-14T05:31:26;20.60;49.20
7970;DHT22;4030;52.362;9.206;2023-06-14T05:33:52;20.60;49.30
7970;DHT22;4030;52.362;9.206;2023-06-14T05:36:19;20.70;49.30
7970;DHT22;4030;52.362;9.206;2023-06-14T05:38:46;20.70;49.40
7970;DHT22;4030;52.362;9.206;2023-06-14T05:41:12;20.70;49.40
7970;DHT22;4030;52.362;9.206;2023-06-14T05:43:38;20.70;49.30
7970;DHT22;4030;52.362;9.206;2023-06-14T05:46:04;20.80;49.40
7970;DHT22;4030;52.362;9.206;2023-06-14T05:48:32;20.80;49.40
7970;DHT22;4030;52.362;9.206;2023-06-14T05:50:58;20.80;49.40
7970;DHT22;4030;52.362;9.206;2023-06-14T05:53:24;20.80;49.40
7970;DHT22;4030;52.362;9.206;2023-06-14T05:55:50;20.90;49.40
7970;DHT22;4030;52.362;9.206;2023-06-14T05:58:18;20.90;49.40
7970;DHT22;4030;52.362;9.206;2023-06-14T06:00:45;21.00;49.40
7970;DHT22;4030;52.362;9.206;2023-06-14T06:03:11;21.00;49.40
7970;DHT22;4030;52.362;9.206;2023-06-14T06:05:38;21.10;49.60
7970;DHT22;4030;52.362;9.206;2023-06-14T06:08:04;21.10;49.40
7970;DHT22;4030;52.362;9.206;2023-06-14T06:10:31;21.20;49.40
7970;DHT22;4030;52.362;9.206;2023-06-14T06:12:56;21.20;49.40
7970;DHT22;4030;52.362;9.206;2023-06-14T06:15:22;21.30;49.60
7970;DHT22;4030;52.362;9.206;2023-06-14T06:17:48;21.30;49.60
7970;DHT22;4030;52.362;9.206;2023-06-14T06:20:13;21.40;50.20
7970;DHT22;4030;52.362;9.206;2023-06-14T06:22:39;21.50;49.60
7970;DHT22;4030;52.362;9.206;2023-06-14T06:25:05;21.50;49.50
7970;DHT22;4030;52.362;9.206;2023-06-14T06:27:31;21.60;49.40
7970;DHT22;4030;52.362;9.206;2023-06-14T06:29:57;21.60;49.20
7970;DHT22;4030;52.362;9.206;2023-06-14T06:32:23;21.70;49.20
7970;DHT22;4030;52.362;9.206;2023-06-14T06:34:49;21.80;49.10
7970;DHT22;4030;52.362;9.206;2023-06-14T06:37:15;21.80;48.70
7970;DHT22;4030;52.362;9.206;2023-06-14T06:39:41;21.80;48.40
7970;DHT22;4030;52.362;9.206;2023-06-14T06:42:06;21.90;48.10
7970;DHT22;4030;52.362;9.206;2023-06-14T06:44:32;21.90;47.80
7970;DHT22;4030;52.362;9.206;2023-06-14T06:46:58;21.90;47.70
7970;DHT22;4030;52.362;9.206;2023-06-14T06:49:24;22.00;47.60
7970;DHT22;4030;52.362;9.206;2023-06-14T06:52:06;22.10;47.70
7970;DHT22;4030;52.362;9.206;2023-06-14T06:54:33;22.10;47.70
7970;DHT22;4030;52.362;9.206;2023-06-14T06:56:59;22.10;47.80
7970;DHT22;4030;52.362;9.206;2023-06-14T06:59:26;22.00;48.00
7970;DHT22;4030;52.362;9.206;2023-06-14T07:01:52;22.00;48.00
7970;DHT22;4030;52.362;9.206;2023-06-14T07:04:18;22.00;48.30
7970;DHT22;4030;52.362;9.206;2023-06-14T07:06:45;21.90;48.10
7970;DHT22;4030;52.362;9.206;2023-06-14T07:09:12;21.90;48.10
7970;DHT22;4030;52.362;9.206;2023-06-14T07:11:39;22.00;48.00
7970;DHT22;4030;52.362;9.206;2023-06-14T07:14:05;22.00;48.00
7970;DHT22;4030;52.362;9.206;2023-06-14T07:16:31;22.00;47.90
7970;DHT22;4030;52.362;9.206;2023-06-14T07:18:57;22.10;48.00
7970;DHT22;4030;52.362;9.206;2023-06-14T07:21:23;22.10;48.00
7970;DHT22;4030;52.362;9.206;2023-06-14T07:23:51;22.00;48.00
7970;DHT22;4030;52.362;9.206;2023-06-14T07:26:17;22.10;47.70
7970;DHT22;4030;52.362;9.206;2023-06-14T07:28:43;22.20;47.70
7970;DHT22;4030;52.362;9.206;2023-06-14T07:31:10;22.20;47.70
7970;DHT22;4030;52.362;9.206;2023-06-14T07:33:36;22.20;47.40
7970;DHT22;4030;52.362;9.206;2023-06-14T07:36:02;22.30;47.70
7970;DHT22;4030;52.362;9.206;2023-06-14T07:38:28;22.40;47.70
7970;DHT22;4030;52.362;9.206;2023-06-14T07:40:54;22.50;47.50
7970;DHT22;4030;52.362;9.206;2023-06-14T07:43:19;22.50;47.20
7970;DHT22;4030;52.362;9.206;2023-06-14T07:45:45;22.50;47.00
7970;DHT22;4030;52.362;9.206;2023-06-14T07:48:11;22.60;47.20
7970;DHT22;4030;52.362;9.206;2023-06-14T07:50:37;22.70;47.20
7970;DHT22;4030;52.362;9.206;2023-06-14T07:53:02;22.70;47.00
7970;DHT22;4030;52.362;9.206;2023-06-14T07:55:28;22.70;46.60
7970;DHT22;4030;52.362;9.206;2023-06-14T07:57:54;22.60;46.40
7970;DHT22;4030;52.362;9.206;2023-06-14T08:00:20;22.60;46.10
7970;DHT22;4030;52.362;9.206;2023-06-14T08:02:46;22.70;46.30
7970;DHT22;4030;52.362;9.206;2023-06-14T08:05:12;22.70;46.50
7970;DHT22;4030;52.362;9.206;2023-06-14T08:07:39;22.80;46.40
7970;DHT22;4030;52.362;9.206;2023-06-14T08:10:05;22.90;46.30
7970;DHT22;4030;52.362;9.206;2023-06-14T08:12:32;23.00;46.10
7970;DHT22;4030;52.362;9.206;2023-06-14T08:14:58;23.00;45.80
7970;DHT22;4030;52.362;9.206;2023-06-14T08:17:24;23.10;45.70
7970;DHT22;4030;52.362;9.206;2023-06-14T08:19:50;23.20;45.30
7970;DHT22;4030;52.362;9.206;2023-06-14T08:22:16;23.30;45.20
7970;DHT22;4030;52.362;9.206;2023-06-14T08:24:43;23.40;45.10
7970;DHT22;4030;52.362;9.206;2023-06-14T08:27:09;23.50;44.80
7970;DHT22;4030;52.362;9.206;2023-06-14T08:29:35;23.50;44.60
7970;DHT22;4030;52.362;9.206;2023-06-14T08:32:01;23.70;44.70
7970;DHT22;4030;52.362;9.206;2023-06-14T08:34:27;23.80;44.50
7970;DHT22;4030;52.362;9.206;2023-06-14T08:36:53;23.90;44.30
7970;DHT22;4030;52.362;9.206;2023-06-14T08:39:18;24.00;44.20
7970;DHT22;4030;52.362;9.206;2023-06-14T08:41:47;24.10;44.00
7970;DHT22;4030;52.362;9.206;2023-06-14T08:44:16;24.20;43.80
7970;DHT22;4030;52.362;9.206;2023-06-14T08:46:42;24.30;43.80
7970;DHT22;4030;52.362;9.206;2023-06-14T08:49:12;24.40;43.70
7970;DHT22;4030;52.362;9.206;2023-06-14T08:51:38;24.50;43.70
7970;DHT22;4030;52.362;9.206;2023-06-14T08:54:06;24.60;43.60
7970;DHT22;4030;52.362;9.206;2023-06-14T08:56:32;24.80;43.70
7970;DHT22;4030;52.362;9.206;2023-06-14T08:58:59;24.80;43.60
7970;DHT22;4030;52.362;9.206;2023-06-14T09:01:28;25.00;43.60
7970;DHT22;4030;52.362;9.206;2023-06-14T09:03:54;25.00;43.30
7970;DHT22;4030;52.362;9.206;2023-06-14T09:06:23;25.10;43.00
7970;DHT22;4030;52.362;9.206;2023-06-14T09:08:50;25.20;42.70
7970;DHT22;4030;52.362;9.206;2023-06-14T09:11:17;25.20;42.20
7970;DHT22;4030;52.362;9.206;2023-06-14T09:13:49;25.30;42.00
7970;DHT22;4030;52.362;9.206;2023-06-14T09:16:15;25.30;41.90
7970;DHT22;4030;52.362;9.206;2023-06-14T09:18:44;25.30;41.80
7970;DHT22;4030;52.362;9.206;2023-06-14T09:21:14;25.30;41.90
7970;DHT22;4030;52.362;9.206;2023-06-14T09:23:43;25.30;41.70
7970;DHT22;4030;52.362;9.206;2023-06-14T09:26:15;25.40;41.60
7970;DHT22;4030;52.362;9.206;2023-06-14T09:28:49;25.40;41.70
7970;DHT22;4030;52.362;9.206;2023-06-14T09:31:20;25.50;41.80
7970;DHT22;4030;52.362;9.206;2023-06-14T09:33:48;25.50;41.50
7970;DHT22;4030;52.362;9.206;2023-06-14T09:36:20;25.60;41.20
7970;DHT22;4030;52.362;9.206;2023-06-14T09:38:57;25.60;41.00
7970;DHT22;4030;52.362;9.206;2023-06-14T09:41:36;25.70;40.90
7970;DHT22;4030;52.362;9.206;2023-06-14T09:44:04;25.80;40.90
7970;DHT22;4030;52.362;9.206;2023-06-14T09:46:32;25.80;40.70
7970;DHT22;4030;52.362;9.206;2023-06-14T09:48:58;25.90;40.40
7970;DHT22;4030;52.362;9.206;2023-06-14T09:51:25;25.90;40.40
7970;DHT22;4030;52.362;9.206;2023-06-14T09:53:52;26.00;40.60
7970;DHT22;4030;52.362;9.206;2023-06-14T09:56:29;26.10;40.70
7970;DHT22;4030;52.362;9.206;2023-06-14T09:58:57;26.20;40.70
7970;DHT22;4030;52.362;9.206;2023-06-14T10:01:30;26.30;40.70
7970;DHT22;4030;52.362;9.206;2023-06-14T10:04:06;26.40;40.70
7970;DHT22;4030;52.362;9.206;2023-06-14T10:06:36;28.50;41.80
7970;DHT22;4030;52.362;9.206;2023-06-14T10:09:04;26.60;40.50
7970;DHT22;4030;52.362;9.206;2023-06-14T10:11:32;26.70;40.40
7970;DHT22;4030;52.362;9.206;2023-06-14T10:13:58;26.90;40.30
7970;DHT22;4030;52.362;9.206;2023-06-14T10:16:33;27.00;40.10
7970;DHT22;4030;52.362;9.206;2023-06-14T10:19:20;27.10;40.10
7970;DHT22;4030;52.362;9.206;2023-06-14T10:22:11;27.10;39.80
7970;DHT22;4030;52.362;9.206;2023-06-14T10:24:44;27.20;39.10
7970;DHT22;4030;52.362;9.206;2023-06-14T10:27:13;27.30;38.70
7970;DHT22;4030;52.362;9.206;2023-06-14T10:32:21;27.40;38.50
7970;DHT22;4030;52.362;9.206;2023-06-14T10:34:57;27.50;38.50
7970;DHT22;4030;52.362;9.206;2023-06-14T10:37:23;27.60;38.40
7970;DHT22;4030;52.362;9.206;2023-06-14T10:39:52;27.70;38.20
7970;DHT22;4030;52.362;9.206;2023-06-14T10:42:19;27.80;38.30
7970;DHT22;4030;52.362;9.206;2023-06-14T10:44:55;27.90;38.30
7970;DHT22;4030;52.362;9.206;2023-06-14T10:47:29;27.90;38.10
7970;DHT22;4030;52.362;9.206;2023-06-14T10:52:32;28.10;38.10
7970;DHT22;4030;52.362;9.206;2023-06-14T10:55:13;28.20;38.10
7970;DHT22;4030;52.362;9.206;2023-06-14T10:57:53;28.20;37.80
7970;DHT22;4030;52.362;9.206;2023-06-14T11:00:25;28.30;37.80
7970;DHT22;4030;52.362;9.206;2023-06-14T11:05:49;28.50;37.70
7970;DHT22;4030;52.362;9.206;2023-06-14T11:08:39;28.70;37.50
7970;DHT22;4030;52.362;9.206;2023-06-14T11:11:13;28.70;37.20
7970;DHT22;4030;52.362;9.206;2023-06-14T11:13:41;28.80;37.30
7970;DHT22;4030;52.362;9.206;2023-06-14T11:16:12;28.90;37.10
7970;DHT22;4030;52.362;9.206;2023-06-14T11:18:38;29.00;37.00
7970;DHT22;4030;52.362;9.206;2023-06-14T11:21:04;29.10;36.90
7970;DHT22;4030;52.362;9.206;2023-06-14T11:23:30;29.20;36.90
7970;DHT22;4030;52.362;9.206;2023-06-14T11:25:55;29.30;36.80
7970;DHT22;4030;52.362;9.206;2023-06-14T11:28:21;29.30;36.40
7970;DHT22;4030;52.362;9.206;2023-06-14T11:30:48;29.30;36.30
7970;DHT22;4030;52.362;9.206;2023-06-14T11:33:18;29.30;36.30
7970;DHT22;4030;52.362;9.206;2023-06-14T11:35:44;29.20;36.30
7970;DHT22;4030;52.362;9.206;2023-06-14T11:38:11;29.00;36.40
7970;DHT22;4030;52.362;9.206;2023-06-14T11:40:38;28.90;36.50
7970;DHT22;4030;52.362;9.206;2023-06-14T11:43:04;28.90;36.60
7970;DHT22;4030;52.362;9.206;2023-06-14T11:45:30;29.10;36.70
7970;DHT22;4030;52.362;9.206;2023-06-14T11:47:58;29.20;36.70
7970;DHT22;4030;52.362;9.206;2023-06-14T11:50:24;29.40;36.80
7970;DHT22;4030;52.362;9.206;2023-06-14T11:52:58;29.50;36.60
7970;DHT22;4030;52.362;9.206;2023-06-14T11:55:39;29.60;36.50
7970;DHT22;4030;52.362;9.206;2023-06-14T11:58:06;29.70;36.40
7970;DHT22;4030;52.362;9.206;2023-06-14T12:00:31;29.80;36.30
7970;DHT22;4030;52.362;9.206;2023-06-14T12:02:58;29.90;36.20
7970;DHT22;4030;52.362;9.206;2023-06-14T12:05:24;30.00;36.20
7970;DHT22;4030;52.362;9.206;2023-06-14T12:08:02;30.30;36.20
7970;DHT22;4030;52.362;9.206;2023-06-14T12:10:29;30.40;35.40
7970;DHT22;4030;52.362;9.206;2023-06-14T12:12:59;30.50;35.20
7970;DHT22;4030;52.362;9.206;2023-06-14T12:15:28;30.60;35.20
7970;DHT22;4030;52.362;9.206;2023-06-14T12:17:54;30.70;35.20
7970;DHT22;4030;52.362;9.206;2023-06-14T12:20:20;30.70;34.90
7970;DHT22;4030;52.362;9.206;2023-06-14T12:22:53;30.70;34.50
7970;DHT22;4030;52.362;9.206;2023-06-14T12:25:29;30.80;34.30
7970;DHT22;4030;52.362;9.206;2023-06-14T12:27:57;30.90;34.50
7970;DHT22;4030;52.362;9.206;2023-06-14T12:30:24;30.90;34.60
7970;DHT22;4030;52.362;9.206;2023-06-14T12:32:49;31.00;34.70
7970;DHT22;4030;52.362;9.206;2023-06-14T12:35:17;31.10;34.70
7970;DHT22;4030;52.362;9.206;2023-06-14T12:37:44;31.30;34.90
7970;DHT22;4030;52.362;9.206;2023-06-14T12:40:11;31.40;34.60
7970;DHT22;4030;52.362;9.206;2023-06-14T12:42:37;31.40;34.60
7970;DHT22;4030;52.362;9.206;2023-06-14T12:45:03;31.40;34.40
7970;DHT22;4030;52.362;9.206;2023-06-14T12:47:29;31.40;34.30
7970;DHT22;4030;52.362;9.206;2023-06-14T12:49:55;31.40;34.10
7970;DHT22;4030;52.362;9.206;2023-06-14T12:52:20;31.30;34.00
7970;DHT22;4030;52.362;9.206;2023-06-14T12:54:46;31.20;34.00
7970;DHT22;4030;52.362;9.206;2023-06-14T12:57:12;31.20;34.00
7970;DHT22;4030;52.362;9.206;2023-06-14T12:59:38;31.30;33.40
7970;DHT22;4030;52.362;9.206;2023-06-14T13:02:15;31.40;33.50
7970;DHT22;4030;52.362;9.206;2023-06-14T13:04:42;31.40;33.50
7970;DHT22;4030;52.362;9.206;2023-06-14T13:07:08;31.50;33.70
7970;DHT22;4030;52.362;9.206;2023-06-14T13:09:34;31.50;33.40
7970;DHT22;4030;52.362;9.206;2023-06-14T13:11:59;31.50;33.20
7970;DHT22;4030;52.362;9.206;2023-06-14T13:14:25;31.50;33.30
7970;DHT22;4030;52.362;9.206;2023-06-14T13:16:51;31.50;33.30
7970;DHT22;4030;52.362;9.206;2023-06-14T13:19:17;31.50;33.40
7970;DHT22;4030;52.362;9.206;2023-06-14T13:21:42;31.60;33.70
7970;DHT22;4030;52.362;9.206;2023-06-14T13:24:08;31.70;33.80
7970;DHT22;4030;52.362;9.206;2023-06-14T13:26:34;31.70;33.40
7970;DHT22;4030;52.362;9.206;2023-06-14T13:29:00;31.50;33.00
7970;DHT22;4030;52.362;9.206;2023-06-14T13:31:26;31.40;33.30
7970;DHT22;4030;52.362;9.206;2023-06-14T13:33:51;31.20;33.30
7970;DHT22;4030;52.362;9.206;2023-06-14T13:36:17;31.20;33.20
7970;DHT22;4030;52.362;9.206;2023-06-14T13:38:43;31.20;33.60
7970;DHT22;4030;52.362;9.206;2023-06-14T13:41:08;31.20;33.60
7970;DHT22;4030;52.362;9.206;2023-06-14T13:43:34;31.20;33.50
7970;DHT22;4030;52.362;9.206;2023-06-14T13:46:00;31.30;33.60
7970;DHT22;4030;52.362;9.206;2023-06-14T13:48:26;31.40;33.40
7970;DHT22;4030;52.362;9.206;2023-06-14T13:50:51;31.50;33.50
7970;DHT22;4030;52.362;9.206;2023-06-14T13:53:17;31.70;33.60
7970;DHT22;4030;52.362;9.206;2023-06-14T13:55:43;31.90;33.60
7970;DHT22;4030;52.362;9.206;2023-06-14T13:58:09;31.90;33.60
7970;DHT22;4030;52.362;9.206;2023-06-14T14:00:34;32.00;33.70
7970;DHT22;4030;52.362;9.206;2023-06-14T14:03:05;32.10;33.60
7970;DHT22;4030;52.362;9.206;2023-06-14T14:05:32;32.20;33.50
7970;DHT22;4030;52.362;9.206;2023-06-14T14:07:58;32.30;33.30
7970;DHT22;4030;52.362;9.206;2023-06-14T14:10:26;32.40;33.30
7970;DHT22;4030;52.362;9.206;2023-06-14T14:12:52;32.50;33.20
7970;DHT22;4030;52.362;9.206;2023-06-14T14:15:19;32.50;32.80
7970;DHT22;4030;52.362;9.206;2023-06-14T14:17:44;32.60;32.90
7970;DHT22;4030;52.362;9.206;2023-06-14T14:20:10;32.80;32.80
7970;DHT22;4030;52.362;9.206;2023-06-14T14:22:43;32.90;32.50
7970;DHT22;4030;52.362;9.206;2023-06-14T14:25:09;32.90;32.50
7970;DHT22;4030;52.362;9.206;2023-06-14T14:27:36;33.00;32.40
7970;DHT22;4030;52.362;9.206;2023-06-14T14:30:03;32.80;32.30
7970;DHT22;4030;52.362;9.206;2023-06-14T14:32:29;32.60;32.20
7970;DHT22;4030;52.362;9.206;2023-06-14T14:34:55;32.40;32.50
7970;DHT22;4030;52.362;9.206;2023-06-14T14:37:20;32.30;32.40
7970;DHT22;4030;52.362;9.206;2023-06-14T14:39:46;32.30;32.70
7970;DHT22;4030;52.362;9.206;2023-06-14T14:42:12;32.00;32.80
7970;DHT22;4030;52.362;9.206;2023-06-14T14:44:38;31.90;33.00
7970;DHT22;4030;52.362;9.206;2023-06-14T14:47:05;31.60;33.30
7970;DHT22;4030;52.362;9.206;2023-06-14T14:49:31;31.40;33.70
7970;DHT22;4030;52.362;9.206;2023-06-14T14:51:57;31.10;33.80
7970;DHT22;4030;52.362;9.206;2023-06-14T14:54:23;30.90;34.20
7970;DHT22;4030;52.362;9.206;2023-06-14T14:56:50;30.90;34.30
7970;DHT22;4030;52.362;9.206;2023-06-14T14:59:16;30.90;34.40
7970;DHT22;4030;52.362;9.206;2023-06-14T15:01:42;31.00;34.60
7970;DHT22;4030;52.362;9.206;2023-06-14T15:04:08;31.00;34.60
7970;DHT22;4030;52.362;9.206;2023-06-14T15:06:33;31.10;34.60
7970;DHT22;4030;52.362;9.206;2023-06-14T15:09:01;31.00;34.60
7970;DHT22;4030;52.362;9.206;2023-06-14T15:11:27;30.90;34.70
7970;DHT22;4030;52.362;9.206;2023-06-14T15:13:53;30.80;34.80
7970;DHT22;4030;52.362;9.206;2023-06-14T15:16:19;30.70;34.90
7970;DHT22;4030;52.362;9.206;2023-06-14T15:18:45;30.60;35.00
7970;DHT22;4030;52.362;9.206;2023-06-14T15:21:11;30.60;35.00
7970;DHT22;4030;52.362;9.206;2023-06-14T15:23:37;30.60;35.10
7970;DHT22;4030;52.362;9.206;2023-06-14T15:26:03;30.60;35.10
7970;DHT22;4030;52.362;9.206;2023-06-14T15:28:29;30.60;35.10
7970;DHT22;4030;52.362;9.206;2023-06-14T15:30:55;28.80;33.90
7970;DHT22;4030;52.362;9.206;2023-06-14T15:33:21;30.50;35.00
7970;DHT22;4030;52.362;9.206;2023-06-14T15:35:47;30.50;35.10
7970;DHT22;4030;52.362;9.206;2023-06-14T15:38:13;30.40;35.10
7970;DHT22;4030;52.362;9.206;2023-06-14T15:40:39;30.40;35.30
7970;DHT22;4030;52.362;9.206;2023-06-14T15:43:04;30.30;35.50
7970;DHT22;4030;52.362;9.206;2023-06-14T15:45:30;30.20;35.60
7970;DHT22;4030;52.362;9.206;2023-06-14T15:47:56;30.10;35.60
7970;DHT22;4030;52.362;9.206;2023-06-14T15:50:23;30.00;35.70
7970;DHT22;4030;52.362;9.206;2023-06-14T15:52:48;30.00;35.80
7970;DHT22;4030;52.362;9.206;2023-06-14T15:55:14;29.90;35.90
7970;DHT22;4030;52.362;9.206;2023-06-14T15:57:40;29.90;35.90
7970;DHT22;4030;52.362;9.206;2023-06-14T16:00:06;29.80;35.80
7970;DHT22;4030;52.362;9.206;2023-06-14T16:02:32;29.80;35.80
7970;DHT22;4030;52.362;9.206;2023-06-14T16:04:58;29.70;35.80
7970;DHT22;4030;52.362;9.206;2023-06-14T16:07:23;29.60;35.90
7970;DHT22;4030;52.362;9.206;2023-06-14T16:09:49;29.60;36.70
7970;DHT22;4030;52.362;9.206;2023-06-14T16:12:15;29.50;36.00
7970;DHT22;4030;52.362;9.206;2023-06-14T16:14:40;29.50;36.00
7970;DHT22;4030;52.362;9.206;2023-06-14T16:17:06;29.50;36.40